Time;durP1;ratioP1;P1;durP2;ratioP2;P2;SDS_P1;SDS_P2;PMS_P1;PMS_P2;Temp;Humidity;BMP_temperature;BMP_pressure;BME280_temperature;BME280_humidity;BME280_pressure;Samples;Min_cycle;Max_cycle;Signal;HPM_P1;HPM_P2
2022/01/11 00:02:20;;;;;;;17.25;8.93;;;;;;;;;;5004873;28;20050;-80
2022/01/11 00:04:47;;;;;;;16.42;8.95;;;;;;;;;;5005553;28;20046;-79
2022/01/11 00:07:16;;;;;;;17.13;9.07;;;;;;;;;;5003739;28;20512;-79
2022/01/11 00:09:44;;;;;;;18.05;9.55;;;;;;;;;;5003320;28;20493;-80
2022/01/11 00:12:12;;;;;;;19.20;9.70;;;;;;;;;;5002674;28;20054;-80
2022/01/11 00:14:39;;;;;;;20.00;9.50;;;;;;;;;;5001677;28;20054;-80
2022/01/11 00:17:06;;;;;;;18.30;10.23;;;;;;;;;;5001121;28;20042;-80
2022/01/11 00:19:34;;;;;;;21.17;9.38;;;;;;;;;;5007839;28;20057;-80
2022/01/11 00:22:04;;;;;;;18.20;9.25;;;;;;;;;;5008373;28;20064;-79
2022/01/11 00:24:30;;;;;;;19.65;9.70;;;;;;;;;;5010460;28;20046;-80
2022/01/11 00:27:01;;;;;;;18.48;9.15;;;;;;;;;;5006646;28;20073;-80
2022/01/11 00:29:30;;;;;;;19.88;9.80;;;;;;;;;;5005246;28;20054;-80
2022/01/11 00:32:02;;;;;;;19.58;9.52;;;;;;;;;;5003918;28;20452;-80
2022/01/11 00:34:39;;;;;;;20.48;9.20;;;;;;;;;;5000980;28;20133;-81
2022/01/11 00:37:06;;;;;;;18.83;9.38;;;;;;;;;;5002563;28;20058;-81
2022/01/11 00:39:34;;;;;;;20.33;9.35;;;;;;;;;;5002237;28;20049;-81
2022/01/11 00:42:00;;;;;;;21.85;10.48;;;;;;;;;;5001389;28;20055;-81
2022/01/11 00:44:29;;;;;;;20.23;9.15;;;;;;;;;;5001942;28;20486;-80
2022/01/11 00:46:55;;;;;;;16.75;10.02;;;;;;;;;;5000688;28;20046;-80
2022/01/11 00:49:22;;;;;;;19.38;9.43;;;;;;;;;;4995391;28;20078;-81
2022/01/11 00:51:49;;;;;;;21.80;10.85;;;;;;;;;;4995220;28;20085;-81
2022/01/11 00:54:15;;;;;;;19.67;9.50;;;;;;;;;;4995410;28;20050;-80
2022/01/11 00:56:42;;;;;;;17.83;9.77;;;;;;;;;;4994553;28;20493;-81
2022/01/11 00:59:09;;;;;;;19.58;10.18;;;;;;;;;;4994772;28;20081;-79
2022/01/11 01:01:38;;;;;;;20.48;10.27;;;;;;;;;;4995154;28;20043;-80
2022/01/11 01:04:05;;;;;;;20.98;10.30;;;;;;;;;;4995213;28;20512;-80
2022/01/11 01:06:32;;;;;;;17.90;9.48;;;;;;;;;;4994729;28;20073;-80
2022/01/11 01:08:59;;;;;;;19.60;9.93;;;;;;;;;;4994722;28;20078;-80
2022/01/11 01:11:26;;;;;;;20.30;9.05;;;;;;;;;;4997510;28;20061;-83
2022/01/11 01:13:52;;;;;;;19.55;10.00;;;;;;;;;;4997343;28;20054;-79
2022/01/11 01:16:20;;;;;;;18.27;9.60;;;;;;;;;;4994591;28;20082;-80
2022/01/11 01:18:49;;;;;;;27.98;12.23;;;;;;;;;;4995093;28;20057;-81
2022/01/11 01:21:16;;;;;;;20.13;10.18;;;;;;;;;;5003611;28;20051;-81
2022/01/11 01:23:42;;;;;;;20.42;10.05;;;;;;;;;;5008927;28;20046;-79
2022/01/11 01:26:10;;;;;;;19.60;9.15;;;;;;;;;;5001303;28;20046;-80
2022/01/11 01:28:36;;;;;;;17.67;9.02;;;;;;;;;;4999632;28;20077;-80
2022/01/11 01:31:03;;;;;;;19.17;9.32;;;;;;;;;;4999378;28;20065;-80
2022/01/11 01:33:31;;;;;;;18.73;9.15;;;;;;;;;;5001439;28;20058;-79
2022/01/11 01:36:02;;;;;;;17.70;9.63;;;;;;;;;;5002276;28;20049;-79
2022/01/11 01:38:30;;;;;;;15.63;8.77;;;;;;;;;;4999956;28;20046;-79
2022/01/11 01:41:03;;;;;;;19.73;8.52;;;;;;;;;;4999215;28;20050;-80
2022/01/11 01:43:30;;;;;;;19.08;9.45;;;;;;;;;;4999734;28;20441;-80
2022/01/11 01:45:59;;;;;;;22.98;9.10;;;;;;;;;;4999004;28;20108;-80
2022/01/11 01:48:26;;;;;;;21.08;8.70;;;;;;;;;;4998511;28;20405;-80
2022/01/11 01:50:53;;;;;;;18.90;9.35;;;;;;;;;;4998989;28;20046;-80
2022/01/11 01:53:22;;;;;;;18.80;9.73;;;;;;;;;;4998608;28;20069;-79
2022/01/11 01:55:49;;;;;;;21.98;10.13;;;;;;;;;;4998215;28;20046;-79
2022/01/11 01:58:17;;;;;;;17.70;9.02;;;;;;;;;;4998150;28;20085;-79
2022/01/11 02:00:51;;;;;;;18.30;9.35;;;;;;;;;;4998743;28;20481;-80
2022/01/11 02:03:25;;;;;;;21.13;9.57;;;;;;;;;;4998225;28;20050;-80
2022/01/11 02:05:52;;;;;;;17.55;8.80;;;;;;;;;;5003923;28;20069;-79
2022/01/11 02:08:19;;;;;;;23.10;9.45;;;;;;;;;;4998504;28;20069;-80
2022/01/11 02:10:47;;;;;;;19.40;8.80;;;;;;;;;;4998466;28;20493;-80
2022/01/11 02:13:14;;;;;;;18.65;9.45;;;;;;;;;;4997870;28;20077;-80
2022/01/11 02:15:41;;;;;;;19.40;8.88;;;;;;;;;;5003763;28;20050;-78
2022/01/11 02:18:09;;;;;;;19.42;9.52;;;;;;;;;;5008083;28;20057;-80
2022/01/11 02:20:38;;;;;;;21.23;10.35;;;;;;;;;;5003500;28;20046;-79
2022/01/11 02:23:05;;;;;;;18.45;9.70;;;;;;;;;;4997219;28;20089;-79
2022/01/11 02:25:32;;;;;;;21.08;10.45;;;;;;;;;;4996827;28;20132;-79
2022/01/11 02:27:59;;;;;;;18.35;9.35;;;;;;;;;;4996557;28;20081;-79
2022/01/11 02:30:31;;;;;;;20.92;9.93;;;;;;;;;;4999176;28;20046;-79
2022/01/11 02:32:58;;;;;;;20.75;9.35;;;;;;;;;;4998814;28;20083;-79
2022/01/11 02:35:24;;;;;;;18.00;9.77;;;;;;;;;;4999598;28;20053;-79
2022/01/11 02:37:53;;;;;;;17.10;8.95;;;;;;;;;;4999882;28;20069;-79
2022/01/11 02:40:20;;;;;;;18.23;9.25;;;;;;;;;;4997111;28;20089;-79
2022/01/11 02:42:47;;;;;;;20.15;9.68;;;;;;;;;;4995769;28;20085;-79
2022/01/11 02:45:15;;;;;;;18.25;9.93;;;;;;;;;;5005254;28;20053;-79
2022/01/11 02:47:42;;;;;;;17.30;8.90;;;;;;;;;;5006071;28;20054;-79
2022/01/11 02:50:10;;;;;;;18.33;9.88;;;;;;;;;;5006081;28;20057;-79
2022/01/11 02:52:37;;;;;;;21.80;9.98;;;;;;;;;;5006658;28;20077;-79
2022/01/11 02:55:09;;;;;;;16.23;9.27;;;;;;;;;;5006097;28;20050;-79
2022/01/11 02:57:36;;;;;;;19.65;9.60;;;;;;;;;;5006179;28;20506;-79
2022/01/11 03:00:04;;;;;;;21.20;9.88;;;;;;;;;;5006560;28;20050;-79
2022/01/11 03:02:31;;;;;;;15.23;8.90;;;;;;;;;;5006690;28;20084;-79
2022/01/11 03:04:58;;;;;;;18.10;9.95;;;;;;;;;;5006203;28;20076;-79
2022/01/11 03:07:24;;;;;;;16.10;8.68;;;;;;;;;;5005528;28;20100;-79
2022/01/11 03:10:02;;;;;;;22.00;9.73;;;;;;;;;;5006265;28;20042;-79
2022/01/11 03:12:30;;;;;;;18.80;9.05;;;;;;;;;;5005477;28;20069;-79
2022/01/11 03:14:57;;;;;;;19.45;8.68;;;;;;;;;;5004862;28;20104;-79
2022/01/11 03:17:25;;;;;;;21.83;9.73;;;;;;;;;;5003278;28;20050;-79
2022/01/11 03:19:53;;;;;;;17.40;8.77;;;;;;;;;;5001837;28;20545;-79
2022/01/11 03:22:20;;;;;;;17.23;9.07;;;;;;;;;;5001651;28;20133;-79
2022/01/11 03:24:47;;;;;;;15.55;9.13;;;;;;;;;;5003907;28;20576;-79
2022/01/11 03:27:14;;;;;;;20.20;9.35;;;;;;;;;;5004204;28;20050;-79
2022/01/11 03:29:42;;;;;;;20.80;10.40;;;;;;;;;;5005718;28;20042;-79
2022/01/11 03:32:10;;;;;;;20.35;9.82;;;;;;;;;;5004991;28;20054;-79
2022/01/11 03:34:36;;;;;;;19.70;9.98;;;;;;;;;;5005405;28;20073;-79
2022/01/11 03:37:04;;;;;;;19.73;9.13;;;;;;;;;;5005085;28;20054;-79
2022/01/11 03:39:32;;;;;;;21.27;9.43;;;;;;;;;;5005475;28;20046;-79
2022/01/11 03:41:59;;;;;;;19.45;9.65;;;;;;;;;;5004945;28;20106;-79
2022/01/11 03:44:25;;;;;;;18.52;10.13;;;;;;;;;;5005298;28;20050;-79
2022/01/11 03:46:53;;;;;;;17.73;9.50;;;;;;;;;;5004645;28;20050;-79
2022/01/11 03:49:20;;;;;;;19.63;9.65;;;;;;;;;;5003598;28;20061;-79
2022/01/11 03:51:49;;;;;;;17.40;8.63;;;;;;;;;;5005066;28;20042;-79
2022/01/11 03:54:23;;;;;;;17.90;9.18;;;;;;;;;;5003945;28;20078;-79
2022/01/11 03:56:50;;;;;;;15.93;9.13;;;;;;;;;;5002857;28;20238;-79
2022/01/11 03:59:17;;;;;;;20.25;11.13;;;;;;;;;;5004125;28;20109;-79
2022/01/11 04:01:44;;;;;;;21.55;9.55;;;;;;;;;;5004356;28;20060;-79
2022/01/11 04:04:12;;;;;;;20.65;10.65;;;;;;;;;;4995798;28;20084;-79
2022/01/11 04:06:39;;;;;;;20.58;10.15;;;;;;;;;;4996663;28;20486;-79
2022/01/11 04:09:09;;;;;;;23.17;10.73;;;;;;;;;;4995922;28;20077;-79
2022/01/11 04:11:36;;;;;;;21.98;10.30;;;;;;;;;;4995518;28;20456;-79
2022/01/11 04:14:03;;;;;;;20.90;10.25;;;;;;;;;;4995365;28;20085;-79
2022/01/11 04:16:30;;;;;;;19.63;9.43;;;;;;;;;;4995378;28;20104;-79
2022/01/11 04:18:57;;;;;;;20.75;9.73;;;;;;;;;;4994777;28;20081;-79
2022/01/11 04:21:25;;;;;;;20.42;9.82;;;;;;;;;;4994736;28;20084;-79
2022/01/11 04:23:53;;;;;;;18.98;9.88;;;;;;;;;;4994416;28;20456;-79
2022/01/11 04:26:20;;;;;;;22.13;10.32;;;;;;;;;;4994892;28;20050;-79
2022/01/11 04:28:47;;;;;;;19.77;10.77;;;;;;;;;;4993692;28;20047;-79
2022/01/11 04:31:13;;;;;;;21.25;10.23;;;;;;;;;;4993423;28;20089;-79
2022/01/11 04:33:43;;;;;;;20.42;10.25;;;;;;;;;;5016991;23;20117;-58
2022/01/11 04:36:10;;;;;;;19.58;8.95;;;;;;;;;;4992589;28;20396;-59
2022/01/11 04:38:40;;;;;;;22.02;10.45;;;;;;;;;;4992447;28;20054;-59
2022/01/11 04:41:07;;;;;;;19.40;9.82;;;;;;;;;;4992864;28;20058;-60
2022/01/11 04:43:34;;;;;;;20.73;10.00;;;;;;;;;;4992551;28;20052;-60
2022/01/11 04:46:01;;;;;;;21.63;10.18;;;;;;;;;;4992662;28;20069;-59
2022/01/11 04:48:32;;;;;;;20.15;10.43;;;;;;;;;;4992228;28;20050;-58
2022/01/11 04:50:58;;;;;;;;;;;;;;;;;;4993411;28;20120;-59
2022/01/11 04:53:25;;;;;;;18.55;9.25;;;;;;;;;;4994083;28;19922;-60
2022/01/11 04:55:53;;;;;;;21.15;9.25;;;;;;;;;;4996905;28;20458;-60
2022/01/11 04:58:20;;;;;;;20.73;10.52;;;;;;;;;;4996765;28;20541;-60
2022/01/11 05:00:47;;;;;;;22.70;10.23;;;;;;;;;;4996300;28;20054;-59
2022/01/11 05:03:14;;;;;;;21.38;9.82;;;;;;;;;;4996217;28;20058;-58
2022/01/11 05:05:41;;;;;;;22.27;10.23;;;;;;;;;;4996347;28;20061;-60
2022/01/11 05:08:08;;;;;;;18.52;9.27;;;;;;;;;;4996149;28;20046;-59
2022/01/11 05:10:35;;;;;;;22.58;10.60;;;;;;;;;;4996094;28;20054;-60
2022/01/11 05:13:03;;;;;;;21.00;10.38;;;;;;;;;;4996022;28;20054;-60
2022/01/11 05:15:30;;;;;;;19.60;10.30;;;;;;;;;;4996004;28;20053;-61
2022/01/11 05:17:57;;;;;;;21.10;9.80;;;;;;;;;;4995877;28;20058;-60
2022/01/11 05:20:24;;;;;;;22.95;11.05;;;;;;;;;;4995928;28;20055;-59
2022/01/11 05:22:51;;;;;;;21.10;10.70;;;;;;;;;;4996007;28;20058;-60
2022/01/11 05:25:19;;;;;;;22.33;11.40;;;;;;;;;;4996030;28;20054;-60
2022/01/11 05:27:45;;;;;;;21.70;10.32;;;;;;;;;;4995585;28;20054;-61
2022/01/11 05:30:14;;;;;;;22.80;10.80;;;;;;;;;;4995746;28;20053;-61
2022/01/11 05:32:42;;;;;;;22.30;11.27;;;;;;;;;;4996116;28;20488;-60
2022/01/11 05:35:12;;;;;;;20.30;10.35;;;;;;;;;;4995747;28;20065;-61
2022/01/11 05:37:40;;;;;;;19.83;10.80;;;;;;;;;;4995503;28;20055;-60
2022/01/11 05:40:09;;;;;;;21.15;10.35;;;;;;;;;;4995537;28;20046;-61
2022/01/11 05:42:36;;;;;;;23.52;10.30;;;;;;;;;;4995549;28;20051;-61
2022/01/11 05:45:05;;;;;;;24.65;10.90;;;;;;;;;;4995635;28;20051;-61
2022/01/11 05:47:33;;;;;;;19.77;9.70;;;;;;;;;;4995249;28;20054;-61
2022/01/11 05:50:01;;;;;;;22.20;10.82;;;;;;;;;;4995401;28;20050;-60
2022/01/11 05:52:28;;;;;;;20.83;10.02;;;;;;;;;;4995499;28;20139;-59
2022/01/11 05:54:55;;;;;;;21.27;11.13;;;;;;;;;;4995200;28;20058;-61
2022/01/11 05:57:22;;;;;;;21.23;10.10;;;;;;;;;;4995151;28;20090;-61
2022/01/11 05:59:49;;;;;;;24.02;10.98;;;;;;;;;;4995029;28;20054;-61
2022/01/11 06:02:16;;;;;;;21.25;10.27;;;;;;;;;;4995530;28;20058;-59
2022/01/11 06:04:45;;;;;;;22.30;11.02;;;;;;;;;;4994615;28;20058;-61
2022/01/11 06:07:11;;;;;;;21.80;10.57;;;;;;;;;;4994850;28;20061;-60
2022/01/11 06:09:39;;;;;;;20.50;10.57;;;;;;;;;;4994923;28;20516;-59
2022/01/11 06:12:07;;;;;;;25.85;11.27;;;;;;;;;;4994913;28;20057;-59
2022/01/11 06:14:34;;;;;;;19.85;10.40;;;;;;;;;;4994527;28;20046;-60
2022/01/11 06:17:01;;;;;;;22.63;10.30;;;;;;;;;;4994599;28;20050;-61
2022/01/11 06:19:28;;;;;;;25.10;10.75;;;;;;;;;;4994620;28;20057;-60
2022/01/11 06:21:56;;;;;;;25.33;11.80;;;;;;;;;;4994845;28;20054;-60
2022/01/11 06:24:23;;;;;;;23.52;12.38;;;;;;;;;;4994524;28;20499;-60
2022/01/11 06:26:50;;;;;;;24.38;11.38;;;;;;;;;;4994748;28;20057;-61
2022/01/11 06:29:16;;;;;;;24.23;11.20;;;;;;;;;;4994687;28;20057;-61
2022/01/11 06:31:43;;;;;;;26.30;11.70;;;;;;;;;;4994586;28;20046;-60
2022/01/11 06:34:11;;;;;;;25.70;11.38;;;;;;;;;;4994305;28;20058;-60
2022/01/11 06:36:38;;;;;;;23.40;11.15;;;;;;;;;;4994101;28;20054;-60
2022/01/11 06:39:06;;;;;;;25.48;11.90;;;;;;;;;;4994934;28;20054;-61
2022/01/11 06:41:35;;;;;;;25.85;11.57;;;;;;;;;;4994579;28;20058;-61
2022/01/11 06:44:02;;;;;;;22.70;11.40;;;;;;;;;;4994259;28;20054;-59
2022/01/11 06:46:29;;;;;;;26.48;13.52;;;;;;;;;;4994038;28;20081;-60
2022/01/11 06:48:57;;;;;;;29.70;13.25;;;;;;;;;;4994268;28;20564;-60
2022/01/11 06:51:24;;;;;;;25.95;11.60;;;;;;;;;;4994218;28;20065;-57
2022/01/11 06:53:51;;;;;;;22.73;10.88;;;;;;;;;;4994397;28;20097;-57
2022/01/11 06:56:20;;;;;;;22.83;11.98;;;;;;;;;;4994147;28;20046;-58
2022/01/11 06:58:47;;;;;;;37.20;19.10;;;;;;;;;;4994430;28;20077;-59
2022/01/11 07:01:14;;;;;;;28.65;13.32;;;;;;;;;;4994103;28;20050;-59
2022/01/11 07:03:41;;;;;;;25.60;11.10;;;;;;;;;;4993989;28;20085;-59
2022/01/11 07:06:08;;;;;;;22.30;11.15;;;;;;;;;;4994234;28;20054;-58
2022/01/11 07:08:35;;;;;;;23.15;11.80;;;;;;;;;;4993688;28;20459;-57
2022/01/11 07:11:02;;;;;;;26.10;12.15;;;;;;;;;;4994148;28;20502;-59
2022/01/11 07:13:30;;;;;;;21.85;11.23;;;;;;;;;;4993764;28;20057;-57
2022/01/11 07:15:57;;;;;;;23.25;11.15;;;;;;;;;;4993515;28;20050;-58
2022/01/11 07:18:24;;;;;;;27.02;12.65;;;;;;;;;;4992825;28;20054;-59
2022/01/11 07:20:51;;;;;;;22.95;10.18;;;;;;;;;;4993615;28;20050;-59
2022/01/11 07:23:18;;;;;;;21.92;10.32;;;;;;;;;;4993492;28;20130;-58
2022/01/11 07:25:45;;;;;;;22.70;10.77;;;;;;;;;;4993484;28;20046;-64
2022/01/11 07:28:14;;;;;;;26.05;12.52;;;;;;;;;;4993478;28;20050;-62
2022/01/11 07:30:42;;;;;;;25.15;11.15;;;;;;;;;;4993611;28;20056;-63
2022/01/11 07:33:09;;;;;;;18.85;9.30;;;;;;;;;;4993440;28;20061;-58
2022/01/11 07:35:36;;;;;;;23.27;11.13;;;;;;;;;;4993566;28;20054;-61
2022/01/11 07:38:03;;;;;;;22.42;10.77;;;;;;;;;;4993212;28;20050;-60
2022/01/11 07:40:30;;;;;;;21.85;11.32;;;;;;;;;;4993318;28;20069;-60
2022/01/11 07:42:57;;;;;;;20.33;10.02;;;;;;;;;;4993333;28;20050;-58
2022/01/11 07:45:24;;;;;;;22.05;11.57;;;;;;;;;;4993231;28;20050;-57
2022/01/11 07:47:53;;;;;;;23.95;12.15;;;;;;;;;;4993138;28;20440;-59
2022/01/11 07:50:20;;;;;;;24.17;10.80;;;;;;;;;;4993325;28;20054;-59
2022/01/11 07:52:48;;;;;;;22.85;10.30;;;;;;;;;;4993470;28;20050;-57
2022/01/11 07:55:15;;;;;;;23.50;11.05;;;;;;;;;;4992908;28;20062;-59
2022/01/11 07:57:42;;;;;;;21.90;11.18;;;;;;;;;;4992949;28;20061;-58
2022/01/11 08:00:10;;;;;;;19.33;9.75;;;;;;;;;;4993439;28;20054;-57
2022/01/11 08:02:37;;;;;;;22.45;10.38;;;;;;;;;;4993075;28;20411;-59
2022/01/11 08:05:07;;;;;;;23.30;10.55;;;;;;;;;;4993458;28;20113;-58
2022/01/11 08:07:34;;;;;;;19.95;10.57;;;;;;;;;;4992935;28;20050;-59
2022/01/11 08:10:01;;;;;;;20.42;10.65;;;;;;;;;;4993032;28;20050;-58
2022/01/11 08:12:28;;;;;;;21.98;10.32;;;;;;;;;;4992995;28;20511;-57
2022/01/11 08:14:54;;;;;;;22.20;11.35;;;;;;;;;;4993118;28;20058;-56
2022/01/11 08:17:21;;;;;;;23.35;12.13;;;;;;;;;;4992586;28;20042;-56
2022/01/11 08:19:48;;;;;;;25.05;11.20;;;;;;;;;;4993139;28;20402;-58
2022/01/11 08:22:17;;;;;;;23.85;11.10;;;;;;;;;;4992534;28;20086;-58
2022/01/11 08:24:44;;;;;;;22.38;10.65;;;;;;;;;;4992855;28;20046;-57
2022/01/11 08:27:12;;;;;;;19.80;10.52;;;;;;;;;;4992640;28;20080;-59
2022/01/11 08:29:39;;;;;;;25.65;12.10;;;;;;;;;;4992675;28;20058;-59
2022/01/11 08:32:07;;;;;;;24.88;11.63;;;;;;;;;;4992946;28;20418;-59
2022/01/11 08:34:34;;;;;;;23.50;11.25;;;;;;;;;;4992597;28;20081;-57
2022/01/11 08:37:01;;;;;;;26.45;12.75;;;;;;;;;;4992224;28;20046;-59
2022/01/11 08:39:29;;;;;;;21.65;11.27;;;;;;;;;;4992404;28;20050;-59
2022/01/11 08:41:56;;;;;;;25.23;10.93;;;;;;;;;;4992229;28;20488;-58
2022/01/11 08:44:24;;;;;;;20.88;10.77;;;;;;;;;;4992491;28;20046;-59
2022/01/11 08:46:51;;;;;;;25.98;12.63;;;;;;;;;;4992423;28;20058;-59
2022/01/11 08:49:18;;;;;;;23.80;11.60;;;;;;;;;;4992283;28;20053;-58
2022/01/11 08:51:45;;;;;;;24.30;11.82;;;;;;;;;;4992539;28;20407;-57
2022/01/11 08:54:12;;;;;;;26.70;13.20;;;;;;;;;;4992492;28;20512;-57
2022/01/11 08:56:41;;;;;;;24.13;11.13;;;;;;;;;;4991867;28;20046;-58
2022/01/11 08:59:08;;;;;;;23.40;11.43;;;;;;;;;;4992369;28;20054;-57
2022/01/11 09:01:35;;;;;;;26.05;12.15;;;;;;;;;;4992208;28;20061;-57
2022/01/11 09:04:03;;;;;;;25.15;11.30;;;;;;;;;;4992349;28;20057;-60
2022/01/11 09:06:30;;;;;;;24.80;11.07;;;;;;;;;;4992463;28;20058;-59
2022/01/11 09:08:56;;;;;;;22.90;11.80;;;;;;;;;;4992539;28;20046;-58
2022/01/11 09:11:23;;;;;;;26.05;12.00;;;;;;;;;;4992570;28;20054;-59
2022/01/11 09:13:52;;;;;;;26.83;13.05;;;;;;;;;;4992541;28;20507;-58
2022/01/11 09:16:21;;;;;;;23.58;11.55;;;;;;;;;;4992463;28;20050;-57
2022/01/11 09:18:49;;;;;;;25.48;11.55;;;;;;;;;;4992619;28;20153;-58
2022/01/11 09:21:16;;;;;;;22.92;11.45;;;;;;;;;;4992539;28;20046;-58
2022/01/11 09:23:43;;;;;;;22.98;10.63;;;;;;;;;;4992317;28;20082;-58
2022/01/11 09:26:09;;;;;;;23.25;10.85;;;;;;;;;;4992234;28;20065;-59
2022/01/11 09:28:36;;;;;;;24.92;11.82;;;;;;;;;;4992283;28;20062;-59
2022/01/11 09:31:05;;;;;;;23.55;12.52;;;;;;;;;;4992153;28;20046;-58
2022/01/11 09:33:32;;;;;;;24.58;11.77;;;;;;;;;;4992065;28;20050;-59
2022/01/11 09:36:00;;;;;;;18.92;9.82;;;;;;;;;;4992314;28;20054;-58
2022/01/11 09:38:28;;;;;;;21.08;10.60;;;;;;;;;;4992153;28;20046;-58
2022/01/11 09:40:57;;;;;;;22.52;10.98;;;;;;;;;;4993870;28;20066;-59
2022/01/11 09:43:26;;;;;;;21.23;11.18;;;;;;;;;;4995202;28;20061;-58
2022/01/11 09:45:55;;;;;;;22.90;11.68;;;;;;;;;;4975756;28;20063;-64
2022/01/11 09:48:26;;;;;;;20.95;10.02;;;;;;;;;;4992450;28;20099;-63
2022/01/11 09:50:53;;;;;;;20.42;9.75;;;;;;;;;;4993704;28;20050;-62
2022/01/11 09:53:20;;;;;;;21.00;10.18;;;;;;;;;;4993923;28;20054;-66
2022/01/11 09:55:47;;;;;;;22.23;10.73;;;;;;;;;;4994031;28;20061;-66
2022/01/11 09:58:15;;;;;;;21.45;11.23;;;;;;;;;;4993667;28;20145;-59
2022/01/11 10:00:42;;;;;;;21.25;10.57;;;;;;;;;;4980151;28;20078;-60
2022/01/11 10:03:10;;;;;;;19.30;10.65;;;;;;;;;;4973201;28;20066;-62
2022/01/11 10:05:38;;;;;;;23.08;11.02;;;;;;;;;;4973659;28;20061;-61
2022/01/11 10:08:20;;;;;;;20.60;10.70;;;;;;;;;;4973892;28;20055;-62
2022/01/11 10:10:48;;;;;;;21.05;9.95;;;;;;;;;;4976244;28;20046;-62
2022/01/11 10:13:30;;;;;;;21.20;10.20;;;;;;;;;;4992770;28;20054;-62
2022/01/11 10:15:57;;;;;;;19.55;10.23;;;;;;;;;;4993659;28;20050;-61
2022/01/11 10:18:35;;;;;;;20.50;9.52;;;;;;;;;;4993103;28;20050;-63
2022/01/11 10:21:26;;;;;;;16.17;9.27;;;;;;;;;;4993157;28;20192;-63
2022/01/11 10:23:53;;;;;;;20.05;10.02;;;;;;;;;;4993155;28;20058;-62
2022/01/11 10:26:41;;;;;;;19.33;9.07;;;;;;;;;;4993091;28;20061;-61
2022/01/11 10:29:24;;;;;;;20.17;9.55;;;;;;;;;;4993393;28;20058;-61
2022/01/11 10:31:51;;;;;;;18.33;10.05;;;;;;;;;;4992433;28;20129;-62
2022/01/11 10:34:26;;;;;;;19.52;9.77;;;;;;;;;;4991829;28;20050;-63
2022/01/11 10:36:55;;;;;;;19.95;10.45;;;;;;;;;;4992925;28;20050;-63
2022/01/11 10:39:28;;;;;;;23.83;12.27;;;;;;;;;;4993018;28;20077;-63
2022/01/11 10:41:56;;;;;;;20.35;10.55;;;;;;;;;;4992873;28;20050;-62
2022/01/11 10:44:42;;;;;;;22.67;11.43;;;;;;;;;;4992776;28;20117;-62
2022/01/11 10:47:10;;;;;;;20.90;10.13;;;;;;;;;;4992929;28;20081;-62
2022/01/11 10:49:37;;;;;;;19.38;9.15;;;;;;;;;;4992976;28;20212;-62
2022/01/11 10:52:20;;;;;;;20.08;9.50;;;;;;;;;;4992981;28;20049;-63
2022/01/11 10:54:47;;;;;;;19.15;9.90;;;;;;;;;;4992867;28;20137;-59
2022/01/11 10:57:16;;;;;;;16.52;8.00;;;;;;;;;;5011965;23;20053;-78
2022/01/11 10:59:43;;;;;;;18.88;9.32;;;;;;;;;;4995587;28;20571;-78
2022/01/11 11:02:13;;;;;;;14.70;7.93;;;;;;;;;;5000111;28;20054;-78
2022/01/11 11:04:40;;;;;;;16.60;9.05;;;;;;;;;;4996079;28;20412;-79
2022/01/11 11:07:13;;;;;;;17.40;8.70;;;;;;;;;;4993313;28;20061;-77
2022/01/11 11:09:50;;;;;;;16.20;9.20;;;;;;;;;;4992634;28;20081;-76
2022/01/11 11:12:19;;;;;;;18.60;9.30;;;;;;;;;;4994614;28;20141;-78
2022/01/11 11:14:51;;;;;;;20.60;9.55;;;;;;;;;;4992476;28;20137;-77
2022/01/11 11:17:31;;;;;;;16.50;8.60;;;;;;;;;;4993592;28;20081;-78
2022/01/11 11:20:03;;;;;;;15.30;8.63;;;;;;;;;;4993121;28;20074;-78
2022/01/11 11:22:30;;;;;;;17.10;9.18;;;;;;;;;;4994071;28;20057;-78
2022/01/11 11:24:59;;;;;;;16.77;9.43;;;;;;;;;;4993479;28;20084;-78
2022/01/11 11:27:28;;;;;;;17.38;8.60;;;;;;;;;;4993678;28;20085;-78
2022/01/11 11:29:56;;;;;;;20.67;8.50;;;;;;;;;;4992058;28;20046;-78
2022/01/11 11:32:23;;;;;;;14.65;7.93;;;;;;;;;;4992451;28;20130;-78
2022/01/11 11:34:50;;;;;;;13.75;7.53;;;;;;;;;;4990954;28;20078;-79
2022/01/11 11:37:36;;;;;;;14.18;7.78;;;;;;;;;;4992339;28;20046;-77
2022/01/11 11:40:08;;;;;;;15.57;8.20;;;;;;;;;;4991506;28;20704;-79
2022/01/11 11:42:36;;;;;;;13.88;7.28;;;;;;;;;;4995073;28;20109;-80
2022/01/11 11:45:15;;;;;;;14.27;7.60;;;;;;;;;;4996835;28;20125;-82
2022/01/11 11:47:44;;;;;;;18.75;7.82;;;;;;;;;;4996835;28;20050;-82
2022/01/11 11:50:15;;;;;;;13.52;8.02;;;;;;;;;;4996989;28;20422;-82
2022/01/11 11:52:44;;;;;;;15.07;9.27;;;;;;;;;;4995631;28;20464;-79
2022/01/11 11:55:19;;;;;;;16.33;8.48;;;;;;;;;;4997302;28;20050;-80
2022/01/11 11:57:47;;;;;;;15.30;8.60;;;;;;;;;;5006180;28;20073;-80
2022/01/11 12:00:18;;;;;;;15.77;8.60;;;;;;;;;;4999494;28;20422;-81
2022/01/11 12:02:46;;;;;;;15.25;7.65;;;;;;;;;;4996079;28;20497;-83
2022/01/11 12:05:15;;;;;;;17.10;7.65;;;;;;;;;;4996745;28;20497;-79
2022/01/11 12:07:44;;;;;;;13.63;8.70;;;;;;;;;;4994820;28;20061;-79
2022/01/11 12:10:16;;;;;;;14.02;8.15;;;;;;;;;;4994116;28;20052;-78
2022/01/11 12:12:51;;;;;;;15.35;8.73;;;;;;;;;;4992313;28;20050;-77
2022/01/11 12:15:36;;;;;;;15.65;8.48;;;;;;;;;;4991792;28;20141;-79
2022/01/11 12:18:17;;;;;;;12.48;7.05;;;;;;;;;;4991407;28;20054;-78
2022/01/11 12:20:49;;;;;;;13.23;7.18;;;;;;;;;;4991100;28;20445;-79
2022/01/11 12:23:21;;;;;;;14.82;7.40;;;;;;;;;;4989473;28;20327;-78
2022/01/11 12:26:11;;;;;;;15.75;7.85;;;;;;;;;;4991908;28;20050;-79
2022/01/11 12:28:38;;;;;;;13.40;8.30;;;;;;;;;;4997442;28;20046;-78
2022/01/11 12:31:25;;;;;;;14.32;7.72;;;;;;;;;;4997451;28;20417;-78
2022/01/11 12:33:52;;;;;;;15.23;7.70;;;;;;;;;;4992668;28;20498;-78
2022/01/11 12:36:19;;;;;;;13.25;7.65;;;;;;;;;;4996399;28;20074;-79
2022/01/11 12:39:01;;;;;;;13.63;7.00;;;;;;;;;;5002934;28;20050;-79
2022/01/11 12:41:33;;;;;;;18.35;8.02;;;;;;;;;;5004264;28;20120;-79
2022/01/11 12:44:18;;;;;;;13.15;6.85;;;;;;;;;;5004616;28;20054;-79
2022/01/11 12:46:53;;;;;;;9.20;5.95;;;;;;;;;;5005558;28;20482;-79
2022/01/11 12:49:21;;;;;;;12.68;6.55;;;;;;;;;;5003860;28;20050;-79
2022/01/11 12:51:52;;;;;;;10.77;6.18;;;;;;;;;;5004713;28;20512;-78
2022/01/11 12:54:27;;;;;;;12.15;6.43;;;;;;;;;;5016852;28;20034;-78
2022/01/11 12:56:58;;;;;;;12.90;6.80;;;;;;;;;;5015521;28;20046;-77
2022/01/11 12:59:28;;;;;;;11.95;6.85;;;;;;;;;;4996686;28;20097;-78
2022/01/11 13:02:00;;;;;;;11.25;6.68;;;;;;;;;;4986691;28;20051;-79
2022/01/11 13:04:46;;;;;;;13.15;7.38;;;;;;;;;;4985180;28;20055;-79
2022/01/11 13:07:24;;;;;;;13.38;6.47;;;;;;;;;;4985688;28;20541;-79
2022/01/11 13:10:05;;;;;;;13.23;7.10;;;;;;;;;;4984686;28;20051;-80
2022/01/11 13:12:35;;;;;;;;;;;;;;;;;;4973800;28;20114;-78
2022/01/11 13:15:10;;;;;;;11.82;6.93;;;;;;;;;;4984893;28;19926;-79
2022/01/11 13:18:04;;;;;;;11.55;6.28;;;;;;;;;;4995421;28;20046;-79
2022/01/11 13:20:31;;;;;;;14.55;7.72;;;;;;;;;;5009265;28;20057;-79
2022/01/11 13:23:14;;;;;;;18.60;11.27;;;;;;;;;;5009041;28;20053;-79
2022/01/11 13:25:44;;;;;;;14.68;9.60;;;;;;;;;;5008474;28;20104;-79
2022/01/11 13:28:13;;;;;;;17.85;9.30;;;;;;;;;;5006380;28;20050;-78
2022/01/11 13:30:43;;;;;;;16.70;9.20;;;;;;;;;;5004725;28;20048;-80
2022/01/11 13:33:22;;;;;;;11.03;6.13;;;;;;;;;;5003981;28;20057;-78
2022/01/11 13:35:49;;;;;;;11.60;6.32;;;;;;;;;;5004225;28;20315;-79
2022/01/11 13:38:15;;;;;;;13.57;8.48;;;;;;;;;;5004812;28;20084;-78
2022/01/11 13:40:43;;;;;;;14.10;8.23;;;;;;;;;;5006716;28;20069;-79
2022/01/11 13:43:14;;;;;;;13.02;7.60;;;;;;;;;;5002730;28;20069;-78
2022/01/11 13:45:43;;;;;;;12.77;6.13;;;;;;;;;;5003455;28;20097;-87
2022/01/11 13:48:13;;;;;;;12.13;6.20;;;;;;;;;;5000131;28;20058;-83
2022/01/11 13:50:52;;;;;;;12.07;6.05;;;;;;;;;;5000872;28;20056;-84
2022/01/11 13:53:23;;;;;;;13.65;6.05;;;;;;;;;;5001238;28;20046;-81
2022/01/11 13:55:51;;;;;;;10.35;5.90;;;;;;;;;;5000580;28;20101;-81
2022/01/11 13:58:20;;;;;;;11.40;5.93;;;;;;;;;;5002246;28;20050;-81
2022/01/11 14:00:46;;;;;;;15.05;7.65;;;;;;;;;;5003034;28;20046;-79
2022/01/11 14:03:15;;;;;;;10.93;6.88;;;;;;;;;;5004608;28;20054;-79
2022/01/11 14:05:42;;;;;;;12.25;6.82;;;;;;;;;;5004586;28;20039;-79
2022/01/11 14:08:11;;;;;;;12.45;6.78;;;;;;;;;;5004757;28;20077;-80
2022/01/11 14:10:38;;;;;;;12.15;7.55;;;;;;;;;;5004061;28;20078;-79
2022/01/11 14:13:06;;;;;;;11.75;7.50;;;;;;;;;;5005970;28;20050;-80
2022/01/11 14:15:36;;;;;;;23.92;12.63;;;;;;;;;;5008991;28;20046;-80
2022/01/11 14:18:11;;;;;;;10.82;6.43;;;;;;;;;;5007721;28;20042;-79
2022/01/11 14:20:38;;;;;;;14.50;7.28;;;;;;;;;;5004026;28;20053;-80
2022/01/11 14:23:11;;;;;;;12.95;6.75;;;;;;;;;;5003539;28;20060;-80
2022/01/11 14:25:41;;;;;;;10.90;6.65;;;;;;;;;;5003755;28;20114;-79
2022/01/11 14:28:11;;;;;;;14.30;7.40;;;;;;;;;;5004208;28;20069;-80
2022/01/11 14:30:43;;;;;;;10.95;6.90;;;;;;;;;;5003449;28;20046;-80
2022/01/11 14:33:15;;;;;;;12.68;6.60;;;;;;;;;;5000217;28;20118;-79
2022/01/11 14:35:42;;;;;;;9.70;5.80;;;;;;;;;;4999294;28;20092;-79
2022/01/11 14:38:12;;;;;;;8.77;5.20;;;;;;;;;;4999503;28;20086;-79